createdAt,value
2017-09-06T00:00:52.360Z,20.10
2017-09-06T00:03:19.828Z,19.90
2017-09-06T00:05:47.413Z,19.90
2017-09-06T00:08:14.954Z,19.90
2017-09-06T00:10:42.439Z,19.90
2017-09-06T00:13:10.045Z,19.90
2017-09-06T00:15:37.552Z,19.90
2017-09-06T00:18:05.037Z,19.90
2017-09-06T00:20:33.396Z,19.90
2017-09-06T00:23:00.900Z,19.90
2017-09-06T00:25:28.404Z,19.80
2017-09-06T00:27:55.999Z,19.90
2017-09-06T00:30:23.528Z,19.80
2017-09-06T00:32:51.005Z,19.60
2017-09-06T00:35:18.568Z,19.80
2017-09-06T00:37:46.821Z,19.80
2017-09-06T00:40:14.298Z,19.80
2017-09-06T00:42:41.816Z,19.80
2017-09-06T00:45:09.306Z,19.80
2017-09-06T00:47:36.884Z,19.60
2017-09-06T00:50:04.370Z,19.70
2017-09-06T00:52:31.836Z,19.70
2017-09-06T00:54:59.447Z,19.70
2017-09-06T00:57:26.997Z,19.70
2017-09-06T00:59:54.483Z,19.60
2017-09-06T01:02:22.072Z,19.50
2017-09-06T01:04:49.565Z,19.50
2017-09-06T01:07:17.039Z,19.50
2017-09-06T01:09:44.790Z,19.50
2017-09-06T01:12:12.343Z,19.50
2017-09-06T01:14:40.630Z,19.40
2017-09-06T01:17:08.212Z,19.40
2017-09-06T01:19:35.700Z,19.40
2017-09-06T01:22:03.270Z,19.40
2017-09-06T01:24:30.915Z,19.40
2017-09-06T01:26:58.476Z,19.40
2017-09-06T01:29:27.002Z,19.40
2017-09-06T01:31:54.467Z,19.30
2017-09-06T01:34:22.691Z,19.40
2017-09-06T01:36:50.232Z,19.30
2017-09-06T01:39:17.696Z,19.40
2017-09-06T01:41:45.188Z,19.30
2017-09-06T01:44:12.809Z,19.30
2017-09-06T01:46:41.045Z,19.30
2017-09-06T01:49:08.629Z,19.30
2017-09-06T01:51:36.227Z,19.30
2017-09-06T01:54:03.826Z,19.30
2017-09-06T01:56:32.091Z,19.30
2017-09-06T01:58:59.640Z,19.30
2017-09-06T02:01:27.998Z,19.30
2017-09-06T02:03:55.495Z,19.20
2017-09-06T02:06:23.059Z,19.30
2017-09-06T02:08:50.552Z,19.20
2017-09-06T02:11:18.044Z,19.20
2017-09-06T02:13:45.629Z,19.20
2017-09-06T02:16:13.269Z,19.20
2017-09-06T02:18:40.758Z,19.20
2017-09-06T02:21:08.460Z,19.20
2017-09-06T02:23:35.968Z,19.20
2017-09-06T02:26:03.467Z,19.20
2017-09-06T02:28:31.812Z,19.20
2017-09-06T02:30:59.387Z,19.20
2017-09-06T02:33:26.892Z,19.20
2017-09-06T02:35:54.385Z,19.20
2017-09-06T02:38:21.969Z,19.20
2017-09-06T02:40:49.439Z,19.20
2017-09-06T02:43:17.955Z,19.20
2017-09-06T02:45:45.570Z,19.20
2017-09-06T02:48:13.884Z,19.20
2017-09-06T02:50:42.152Z,19.20
2017-09-06T02:53:09.733Z,19.20
2017-09-06T02:55:37.288Z,19.20
2017-09-06T02:58:04.784Z,19.20
2017-09-06T03:00:32.357Z,19.10
2017-09-06T03:02:59.866Z,19.10
2017-09-06T03:05:27.382Z,19.10
2017-09-06T03:07:54.952Z,19.10
2017-09-06T03:10:22.493Z,19.00
2017-09-06T03:12:50.009Z,19.00
2017-09-06T03:15:17.724Z,19.00
2017-09-06T03:17:45.981Z,18.90
2017-09-06T03:20:13.597Z,18.90
2017-09-06T03:22:42.072Z,18.90
2017-09-06T03:25:09.549Z,18.80
2017-09-06T03:27:37.012Z,18.80
2017-09-06T03:30:04.650Z,18.80
2017-09-06T03:32:32.240Z,18.90
2017-09-06T03:34:59.898Z,18.90
2017-09-06T03:37:27.363Z,19.00
2017-09-06T03:39:54.907Z,19.00
2017-09-06T03:42:23.162Z,19.10
2017-09-06T03:44:50.651Z,19.10
2017-09-06T03:47:18.175Z,19.20
2017-09-06T03:49:45.835Z,19.10
2017-09-06T03:52:13.420Z,19.20
2017-09-06T03:54:40.911Z,19.20
2017-09-06T03:57:09.080Z,19.20
2017-09-06T03:59:36.649Z,19.20
2017-09-06T04:02:04.287Z,19.20
2017-09-06T04:04:31.851Z,19.20
2017-09-06T04:06:59.341Z,19.20
2017-09-06T04:09:26.986Z,19.30
2017-09-06T04:11:54.475Z,19.00
2017-09-06T04:14:22.070Z,19.30
2017-09-06T04:16:49.637Z,19.30
2017-09-06T04:19:17.169Z,19.10
2017-09-06T04:21:45.445Z,19.40
2017-09-06T04:24:13.118Z,19.40
2017-09-06T04:26:40.595Z,19.40
2017-09-06T04:29:08.123Z,19.40
2017-09-06T04:31:35.618Z,19.40
2017-09-06T04:34:03.962Z,19.50
2017-09-06T04:36:31.560Z,19.40
2017-09-06T04:38:59.058Z,19.50
2017-09-06T04:41:26.727Z,19.50
2017-09-06T04:43:54.218Z,19.50
2017-09-06T04:46:21.725Z,19.40
2017-09-06T04:48:49.299Z,19.30
2017-09-06T04:51:16.790Z,19.20
2017-09-06T04:53:44.264Z,19.10
2017-09-06T04:56:11.859Z,19.00
2017-09-06T04:58:39.354Z,18.90
2017-09-06T05:01:07.191Z,18.90
2017-09-06T05:03:34.787Z,18.90
2017-09-06T05:06:02.263Z,18.80
2017-09-06T05:08:29.847Z,18.80
2017-09-06T05:10:57.324Z,18.80
2017-09-06T05:13:24.799Z,18.80
2017-09-06T05:15:53.462Z,18.80
2017-09-06T05:18:20.983Z,18.80
2017-09-06T05:20:48.503Z,18.80
2017-09-06T05:23:16.086Z,18.80
2017-09-06T05:25:43.587Z,18.80
2017-09-06T05:28:11.076Z,18.90
2017-09-06T05:30:38.676Z,18.90
2017-09-06T05:33:06.265Z,19.00
2017-09-06T05:35:35.540Z,19.10
2017-09-06T05:38:03.176Z,19.10
2017-09-06T05:40:31.425Z,19.20
2017-09-06T05:42:59.166Z,19.30
2017-09-06T05:45:26.703Z,19.30
2017-09-06T05:47:54.235Z,19.40
2017-09-06T05:50:22.548Z,19.50
2017-09-06T05:52:50.025Z,19.40
2017-09-06T05:55:17.610Z,19.50
2017-09-06T05:57:45.101Z,19.50
2017-09-06T06:00:12.711Z,19.60
2017-09-06T06:02:40.532Z,19.60
2017-09-06T06:05:08.149Z,19.70
2017-09-06T06:07:35.691Z,19.80
2017-09-06T06:10:03.188Z,19.60
2017-09-06T06:12:30.804Z,19.80
2017-09-06T06:14:58.344Z,19.90
2017-09-06T06:17:25.821Z,19.90
2017-09-06T06:19:53.400Z,20.00
2017-09-06T06:22:21.044Z,20.10
2017-09-06T06:24:48.587Z,20.20
2017-09-06T06:27:16.175Z,20.30
2017-09-06T06:29:43.710Z,20.40
2017-09-06T06:32:11.211Z,20.40
2017-09-06T06:34:38.826Z,20.40
2017-09-06T06:37:06.352Z,20.50
2017-09-06T06:39:33.835Z,20.50
2017-09-06T06:42:01.407Z,20.50
2017-09-06T06:44:28.889Z,20.70
2017-09-06T06:46:56.638Z,20.70
2017-09-06T06:49:24.207Z,20.80
2017-09-06T06:51:51.690Z,20.80
2017-09-06T06:54:19.985Z,20.90
2017-09-06T06:56:47.566Z,20.90
2017-09-06T06:59:15.076Z,20.90
2017-09-06T07:01:42.606Z,20.90
2017-09-06T07:04:10.152Z,20.90
2017-09-06T07:06:37.739Z,21.00
2017-09-06T07:09:05.236Z,21.00
2017-09-06T07:11:32.753Z,21.00
2017-09-06T07:14:00.373Z,21.00
2017-09-06T07:16:27.979Z,21.20
2017-09-06T07:18:56.233Z,21.90
2017-09-06T07:21:23.820Z,21.70
2017-09-06T07:23:51.569Z,22.00
2017-09-06T07:26:19.058Z,22.10
2017-09-06T07:28:46.578Z,22.30
2017-09-06T07:31:14.154Z,22.50
2017-09-06T07:33:41.646Z,22.60
2017-09-06T07:36:09.135Z,22.60
2017-09-06T07:38:36.706Z,22.60
2017-09-06T07:41:04.335Z,22.50
2017-09-06T07:43:31.815Z,22.50
2017-09-06T07:46:00.171Z,22.60
2017-09-06T07:48:28.430Z,22.70
2017-09-06T07:50:55.909Z,22.70
2017-09-06T07:53:23.802Z,22.90
2017-09-06T07:55:51.281Z,23.00
2017-09-06T07:58:18.761Z,22.90
2017-09-06T08:00:46.399Z,23.00
2017-09-06T08:03:13.970Z,23.00
2017-09-06T08:05:41.482Z,23.00
2017-09-06T08:08:10.183Z,23.00
2017-09-06T08:10:37.660Z,23.00
2017-09-06T08:13:05.190Z,23.10
2017-09-06T08:15:32.938Z,23.10
2017-09-06T08:18:00.468Z,23.00
2017-09-06T08:20:28.058Z,22.90
2017-09-06T08:22:55.645Z,22.80
2017-09-06T08:25:23.164Z,22.60
2017-09-06T08:27:50.658Z,22.50
2017-09-06T08:30:18.211Z,22.40
2017-09-06T08:32:45.706Z,22.20
2017-09-06T08:35:13.308Z,22.00
2017-09-06T08:37:40.876Z,21.90
2017-09-06T08:40:08.447Z,21.80
2017-09-06T08:42:36.030Z,21.70
2017-09-06T08:45:03.526Z,21.80
2017-09-06T08:47:31.113Z,21.90
2017-09-06T08:49:58.596Z,21.80
2017-09-06T08:52:26.155Z,21.70
2017-09-06T08:54:53.700Z,21.60
2017-09-06T08:57:22.046Z,21.50
2017-09-06T08:59:49.527Z,21.50
2017-09-06T09:02:17.015Z,21.40
2017-09-06T09:04:44.590Z,21.30
2017-09-06T09:07:12.077Z,21.20
2017-09-06T09:09:39.598Z,21.00
2017-09-06T09:12:07.195Z,20.90
2017-09-06T09:14:35.441Z,20.90
2017-09-06T09:17:02.946Z,20.90
2017-09-06T09:19:30.528Z,20.90
2017-09-06T09:21:57.997Z,21.10
2017-09-06T09:24:25.549Z,21.40
2017-09-06T09:26:53.092Z,21.60
2017-09-06T09:29:20.661Z,21.80
2017-09-06T09:31:48.139Z,21.90
2017-09-06T09:34:15.699Z,22.20
2017-09-06T09:36:43.510Z,22.60
2017-09-06T09:39:11.055Z,22.60
2017-09-06T09:41:39.491Z,23.20
2017-09-06T09:44:07.183Z,23.20
2017-09-06T09:46:34.743Z,23.50
2017-09-06T09:49:03.052Z,23.70
2017-09-06T09:51:31.288Z,23.60
2017-09-06T09:53:59.047Z,23.60
2017-09-06T09:56:26.672Z,23.50
2017-09-06T09:58:54.196Z,23.40
2017-09-06T10:01:22.553Z,23.30
2017-09-06T10:03:50.024Z,23.20
2017-09-06T10:06:17.522Z,23.10
2017-09-06T10:08:45.298Z,22.90
2017-09-06T10:11:12.840Z,22.90
2017-09-06T10:13:40.308Z,22.90
2017-09-06T10:16:08.010Z,23.00
2017-09-06T10:18:36.276Z,23.00
2017-09-06T10:21:03.878Z,23.00
2017-09-06T10:23:31.435Z,23.20
2017-09-06T10:25:58.993Z,23.20
2017-09-06T10:28:26.524Z,23.30
2017-09-06T10:30:54.293Z,23.30
2017-09-06T10:33:21.801Z,23.40
2017-09-06T10:35:49.291Z,23.40
2017-09-06T10:38:16.855Z,23.50
2017-09-06T10:40:44.319Z,23.70
2017-09-06T10:43:11.822Z,24.00
2017-09-06T10:45:39.439Z,24.10
2017-09-06T10:48:06.993Z,23.90
2017-09-06T10:50:34.812Z,24.50
2017-09-06T10:53:02.394Z,25.60
2017-09-06T10:55:29.878Z,26.30
2017-09-06T10:57:57.389Z,27.20
2017-09-06T11:00:25.849Z,27.80
2017-09-06T11:02:54.269Z,28.30
2017-09-06T11:05:21.939Z,28.60
2017-09-06T11:07:49.664Z,28.50
2017-09-06T11:10:17.284Z,28.40
2017-09-06T11:12:44.769Z,27.90
2017-09-06T11:15:12.559Z,27.80
2017-09-06T11:17:40.076Z,27.30
2017-09-06T11:20:08.260Z,27.00
2017-09-06T11:22:35.793Z,26.70
2017-09-06T11:25:03.412Z,26.50
2017-09-06T11:27:30.947Z,26.20
2017-09-06T11:29:58.429Z,26.00
2017-09-06T11:32:25.992Z,25.90
2017-09-06T11:34:53.469Z,25.80
2017-09-06T11:37:20.974Z,25.60
2017-09-06T11:39:48.663Z,25.60
2017-09-06T11:42:16.260Z,25.50
2017-09-06T11:44:43.813Z,25.40
2017-09-06T11:47:11.349Z,25.30
2017-09-06T11:49:39.686Z,25.40
2017-09-06T11:52:07.359Z,25.40
2017-09-06T11:54:36.602Z,25.40
2017-09-06T11:57:04.673Z,25.40
2017-09-06T11:59:32.150Z,25.20
2017-09-06T12:02:00.388Z,24.70
2017-09-06T12:04:27.978Z,24.70
2017-09-06T12:06:55.469Z,24.60
2017-09-06T12:09:22.963Z,24.40
2017-09-06T12:11:50.514Z,24.20
2017-09-06T12:14:17.995Z,24.00
2017-09-06T12:16:45.619Z,23.80
2017-09-06T12:19:13.149Z,23.60
2017-09-06T12:21:41.407Z,23.30
2017-09-06T12:24:08.992Z,23.30
2017-09-06T12:26:36.496Z,23.10
2017-09-06T12:29:03.986Z,23.00
2017-09-06T12:31:31.574Z,22.80
2017-09-06T12:33:59.057Z,22.70
2017-09-06T12:36:26.625Z,22.60
2017-09-06T12:38:54.193Z,22.60
2017-09-06T12:41:21.686Z,22.50
2017-09-06T12:43:49.178Z,22.40
2017-09-06T12:46:16.753Z,22.30
2017-09-06T12:48:44.302Z,22.30
2017-09-06T12:51:11.797Z,21.90
2017-09-06T12:53:39.365Z,21.70
2017-09-06T12:56:07.192Z,21.50
2017-09-06T12:58:35.472Z,21.30
2017-09-06T13:01:07.908Z,21.20
2017-09-06T13:03:35.735Z,21.20
2017-09-06T13:06:03.241Z,21.00
2017-09-06T13:08:30.903Z,20.90
2017-09-06T13:10:58.420Z,20.70
2017-09-06T13:13:25.905Z,20.50
2017-09-06T13:15:53.499Z,20.50
2017-09-06T13:18:21.054Z,20.30
2017-09-06T13:20:48.551Z,20.50
2017-09-06T13:23:16.223Z,20.60
2017-09-06T13:25:44.582Z,20.80
2017-09-06T13:28:12.883Z,20.90
2017-09-06T13:30:40.454Z,21.00
2017-09-06T13:33:08.353Z,21.10
2017-09-06T13:35:35.832Z,21.20
2017-09-06T13:38:03.398Z,21.50
2017-09-06T13:40:30.902Z,21.70
2017-09-06T13:42:58.393Z,21.90
2017-09-06T13:45:26.087Z,22.00
2017-09-06T13:47:53.568Z,22.00
2017-09-06T13:50:21.072Z,22.00
2017-09-06T13:52:48.665Z,22.00
2017-09-06T13:55:16.143Z,22.00
2017-09-06T13:57:43.665Z,22.00
2017-09-06T14:00:11.255Z,22.20
2017-09-06T14:02:38.757Z,22.10
2017-09-06T14:05:06.282Z,22.20
2017-09-06T14:07:33.919Z,22.40
2017-09-06T14:10:01.391Z,22.50
2017-09-06T14:12:28.861Z,22.50
2017-09-06T14:14:56.419Z,22.50
2017-09-06T14:17:23.908Z,22.60
2017-09-06T14:19:51.453Z,22.60
2017-09-06T14:22:19.034Z,22.70
2017-09-06T14:24:46.633Z,22.80
2017-09-06T14:27:14.251Z,22.90
2017-09-06T14:29:42.583Z,23.10
2017-09-06T14:32:10.066Z,23.10
2017-09-06T14:34:37.549Z,23.00
2017-09-06T14:37:05.857Z,22.90
2017-09-06T14:39:33.369Z,22.80
2017-09-06T14:42:01.075Z,22.80
2017-09-06T14:44:29.353Z,22.80
2017-09-06T14:46:56.810Z,22.80
2017-09-06T14:49:24.377Z,22.80
2017-09-06T14:51:51.889Z,22.90
2017-09-06T14:54:19.359Z,23.00
2017-09-06T14:56:46.922Z,23.00
2017-09-06T14:59:14.408Z,23.10
2017-09-06T15:01:41.884Z,23.10
2017-09-06T15:04:09.470Z,23.20
2017-09-06T15:06:36.960Z,23.10
2017-09-06T15:09:04.448Z,23.00
2017-09-06T15:11:32.541Z,23.10
2017-09-06T15:14:00.055Z,23.00
2017-09-06T15:16:27.549Z,22.80
2017-09-06T15:18:55.187Z,22.80
2017-09-06T15:21:22.688Z,22.70
2017-09-06T15:23:50.147Z,22.70
2017-09-06T15:26:17.721Z,22.70
2017-09-06T15:28:45.288Z,22.70
2017-09-06T15:31:12.805Z,22.70
2017-09-06T15:33:50.567Z,22.60
2017-09-06T15:36:18.033Z,22.60
2017-09-06T15:38:45.542Z,22.60
2017-09-06T15:41:13.108Z,22.70
2017-09-06T15:43:40.590Z,22.70
2017-09-06T15:46:08.062Z,22.60
2017-09-06T15:48:35.614Z,22.60
2017-09-06T15:51:03.061Z,22.70
2017-09-06T15:53:30.519Z,22.70
2017-09-06T15:55:58.068Z,22.70
2017-09-06T15:58:25.531Z,22.70
2017-09-06T16:00:53.032Z,22.70
2017-09-06T16:03:20.548Z,22.70
2017-09-06T16:05:48.005Z,22.50
2017-09-06T16:08:15.563Z,22.40
2017-09-06T16:10:43.038Z,22.10
2017-09-06T16:13:10.549Z,22.10
2017-09-06T16:15:38.008Z,22.00
2017-09-06T16:18:06.377Z,21.90
2017-09-06T16:20:34.672Z,21.60
2017-09-06T16:23:02.147Z,21.60
2017-09-06T16:25:29.763Z,21.50
2017-09-06T16:27:57.232Z,21.40
2017-09-06T16:30:24.693Z,21.40
2017-09-06T16:32:52.327Z,21.40
2017-09-06T16:35:19.783Z,21.40
2017-09-06T16:37:48.227Z,21.30
2017-09-06T16:40:16.531Z,21.20
2017-09-06T16:42:44.102Z,21.20
2017-09-06T16:45:11.584Z,21.10
2017-09-06T16:47:39.977Z,21.20
2017-09-06T16:50:07.759Z,21.10
2017-09-06T16:52:35.295Z,21.10
2017-09-06T16:55:02.758Z,21.00
2017-09-06T16:57:30.300Z,21.00
2017-09-06T16:59:57.808Z,21.00
2017-09-06T17:02:25.299Z,21.00
2017-09-06T17:04:53.742Z,21.00
2017-09-06T17:07:21.221Z,21.00
2017-09-06T17:09:48.687Z,21.00
2017-09-06T17:12:16.251Z,21.00
2017-09-06T17:14:43.772Z,21.00
2017-09-06T17:17:11.250Z,21.00
2017-09-06T17:19:38.801Z,20.90
2017-09-06T17:22:06.426Z,20.90
2017-09-06T17:24:33.909Z,21.00
2017-09-06T17:27:01.458Z,21.00
2017-09-06T17:29:28.937Z,21.00
2017-09-06T17:31:57.183Z,21.00
2017-09-06T17:34:24.752Z,20.90
2017-09-06T17:36:52.240Z,20.80
2017-09-06T17:39:19.705Z,20.70
2017-09-06T17:41:48.087Z,20.40
2017-09-06T17:44:15.550Z,20.40
2017-09-06T17:46:43.093Z,20.40
2017-09-06T17:49:10.662Z,20.30
2017-09-06T17:51:38.278Z,20.40
2017-09-06T17:54:05.762Z,20.30
2017-09-06T17:56:33.317Z,20.40
2017-09-06T17:59:00.792Z,20.20
2017-09-06T18:01:35.522Z,20.20
2017-09-06T18:04:03.041Z,20.20
2017-09-06T18:06:30.515Z,20.10
2017-09-06T18:08:58.410Z,20.10
2017-09-06T18:11:25.882Z,19.90
2017-09-06T18:13:53.365Z,19.80
2017-09-06T18:16:20.915Z,19.80
2017-09-06T18:18:48.401Z,19.70
2017-09-06T18:21:15.917Z,19.70
2017-09-06T18:23:43.607Z,19.60
2017-09-06T18:26:11.269Z,19.60
2017-09-06T18:28:38.869Z,19.50
2017-09-06T18:31:06.454Z,19.50
2017-09-06T18:33:34.739Z,19.50
2017-09-06T18:36:02.859Z,19.40
2017-09-06T18:38:30.419Z,19.50
2017-09-06T18:40:57.888Z,19.40
2017-09-06T18:43:25.347Z,19.30
2017-09-06T18:45:52.949Z,19.20
2017-09-06T18:48:20.492Z,19.20
2017-09-06T18:50:47.977Z,19.20
2017-09-06T18:53:15.691Z,19.10
2017-09-06T18:55:43.178Z,19.10
2017-09-06T18:58:10.679Z,19.00
2017-09-06T19:00:38.276Z,18.90
2017-09-06T19:03:05.755Z,18.90
2017-09-06T19:05:33.307Z,18.80
2017-09-06T19:08:00.862Z,18.80
2017-09-06T19:10:28.333Z,18.80
2017-09-06T19:12:55.800Z,18.70
2017-09-06T19:15:23.350Z,18.70
2017-09-06T19:17:50.881Z,18.70
2017-09-06T19:20:18.351Z,18.70
2017-09-06T19:22:45.942Z,18.70
2017-09-06T19:25:15.363Z,18.60
2017-09-06T19:27:43.658Z,18.40
2017-09-06T19:30:11.214Z,18.40
2017-09-06T19:32:38.683Z,18.40
2017-09-06T19:35:06.567Z,18.40
2017-09-06T19:37:34.121Z,18.30
2017-09-06T19:40:01.672Z,18.20
2017-09-06T19:42:29.866Z,18.20
2017-09-06T19:44:57.318Z,18.10
2017-09-06T19:47:24.882Z,18.10
2017-09-06T19:49:52.456Z,18.00
2017-09-06T19:52:19.919Z,18.00
2017-09-06T19:54:47.544Z,17.90
2017-09-06T19:57:15.055Z,17.80
2017-09-06T19:59:42.520Z,17.70
2017-09-06T20:02:10.044Z,17.60
2017-09-06T20:04:37.677Z,17.50
2017-09-06T20:07:05.188Z,17.50
2017-09-06T20:09:32.649Z,17.50
2017-09-06T20:12:00.209Z,17.50
2017-09-06T20:14:27.746Z,17.40
2017-09-06T20:16:55.214Z,17.40
2017-09-06T20:19:22.815Z,17.40
2017-09-06T20:21:50.292Z,17.40
2017-09-06T20:24:17.835Z,17.40
2017-09-06T20:26:45.378Z,17.40
2017-09-06T20:29:12.926Z,17.40
2017-09-06T20:31:40.496Z,17.40
2017-09-06T20:34:07.971Z,17.40
2017-09-06T20:36:35.672Z,17.30
2017-09-06T20:39:03.264Z,17.40
2017-09-06T20:41:30.792Z,17.40
2017-09-06T20:43:58.293Z,17.30
2017-09-06T20:46:26.620Z,17.30
2017-09-06T20:48:54.101Z,17.30
2017-09-06T20:51:21.673Z,17.40
2017-09-06T20:53:49.262Z,17.40
2017-09-06T20:56:17.367Z,17.40
2017-09-06T20:58:45.114Z,17.40
2017-09-06T21:01:12.634Z,17.40
2017-09-06T21:03:40.267Z,17.40
2017-09-06T21:06:07.810Z,17.40
2017-09-06T21:08:35.303Z,17.30
2017-09-06T21:11:02.887Z,17.30
2017-09-06T21:13:30.375Z,17.30
2017-09-06T21:15:57.863Z,17.30
2017-09-06T21:18:25.419Z,17.30
2017-09-06T21:20:52.879Z,17.30
2017-09-06T21:23:20.322Z,17.20
2017-09-06T21:25:47.889Z,17.20
2017-09-06T21:28:15.368Z,17.20
2017-09-06T21:30:42.847Z,17.20
2017-09-06T21:33:10.393Z,17.30
2017-09-06T21:35:37.857Z,17.20
2017-09-06T21:38:05.348Z,17.20
2017-09-06T21:40:32.953Z,17.20
2017-09-06T21:43:04.410Z,17.10
2017-09-06T21:45:31.930Z,17.10
2017-09-06T21:48:00.201Z,17.10
2017-09-06T21:50:27.670Z,17.10
2017-09-06T21:52:55.220Z,17.10
2017-09-06T21:55:22.682Z,17.10
2017-09-06T21:57:50.164Z,17.10
2017-09-06T22:00:17.735Z,17.10
2017-09-06T22:02:45.203Z,17.10
2017-09-06T22:05:12.689Z,17.10
2017-09-06T22:07:40.268Z,17.10
2017-09-06T22:10:07.818Z,17.00
2017-09-06T22:12:35.754Z,17.00
2017-09-06T22:15:03.214Z,17.10
2017-09-06T22:17:30.907Z,17.10
2017-09-06T22:19:58.488Z,17.20
2017-09-06T22:22:56.715Z,17.10
2017-09-06T22:25:24.301Z,17.10
2017-09-06T22:27:51.805Z,17.10
2017-09-06T22:30:20.048Z,17.10
2017-09-06T22:32:47.709Z,17.10
2017-09-06T22:35:15.994Z,17.10
2017-09-06T22:37:43.560Z,17.10
2017-09-06T22:40:11.072Z,17.10
2017-09-06T22:42:38.601Z,17.20
2017-09-06T22:45:06.271Z,17.00
2017-09-06T22:47:34.750Z,17.30
2017-09-06T22:50:02.328Z,17.30
2017-09-06T22:52:29.803Z,17.30
2017-09-06T22:54:57.403Z,17.30
2017-09-06T22:57:24.892Z,17.40
2017-09-06T22:59:52.381Z,17.60
2017-09-06T23:02:19.989Z,17.40
2017-09-06T23:04:47.480Z,17.50
2017-09-06T23:07:14.972Z,17.50
2017-09-06T23:09:43.338Z,17.50
2017-09-06T23:12:10.848Z,17.50
2017-09-06T23:14:39.162Z,17.40
2017-09-06T23:17:06.902Z,17.30
2017-09-06T23:19:35.197Z,17.30
2017-09-06T23:22:03.486Z,17.20
2017-09-06T23:24:31.027Z,17.20
2017-09-06T23:26:58.788Z,17.10
2017-09-06T23:29:26.399Z,17.20
2017-09-06T23:31:53.921Z,17.10
2017-09-06T23:34:21.482Z,17.10
2017-09-06T23:36:49.729Z,17.00
2017-09-06T23:39:17.259Z,17.00
2017-09-06T23:41:44.858Z,17.10
2017-09-06T23:44:12.457Z,17.10
2017-09-06T23:46:39.969Z,17.00
2017-09-06T23:49:07.629Z,17.00
2017-09-06T23:51:35.961Z,17.00
2017-09-06T23:54:03.458Z,16.90
2017-09-06T23:56:31.588Z,16.90
2017-09-06T23:58:59.088Z,16.90
